Airfield :
LOGIN :

Register | Disclaimer

   EN    FR    IT 

 










Legend :    VFR   Marginal VFR   IFR   Intensive IFR   Very Intensive IFR
Visi :
Ceiling :
>= 8 km
>= 3000ft
5 to 8 km
1000 to 3000 ft
1500m to 5 km
500 to 1000 ft
800 to 1500m
200 to 500 ft
< 800m
< 200 ft
Symbols :   Thunderstorms  Fog  Heavy snow  Heavy precipitations  Wind > 20 kt
SIGMETs :     Misc.  Thunderstorms  Icing  Turbulence  Mountain Waves  Volcanic Ashes






- Airport Elevation : 1090 ft
- IATA code : CFE


LFLC - Clermont-Ferrand Auvergne

CURRENT METAR :
  • 171500Z AUTO 23008KT 200V260 9999 BKN036 BKN042 OVC092 11/04 Q1024 TEMPO RA

EXPIRED METARs :
  • 171430Z AUTO 22011KT 170V270 9999 SCT033 BKN039 BKN054 11/05 Q1024 TEMPO RA
  • 171400Z AUTO 24006KT 210V290 9999 BKN034 BKN043 OVC056 11/05 Q1024 NOSIG
  • 171330Z AUTO 24007KT 200V280 9999 BKN033 OVC064 11/05 Q1023 NOSIG
  • 171300Z AUTO 24007G17KT 210V270 9999 BKN033 BKN041 OVC074 11/05 Q1023 NOSIG
  • 171230Z AUTO VRB03KT 9999 BKN030 BKN039 BKN052 11/06 Q1024 NOSIG

TAF TAF LFLC
Valid from the 17 at 15:00 until the 18 at 15:00 UTC


171400Z 1715/1815 29010KT 9999 BKN050
TEMPO 1715/1721 6000 RA SCT010 OVC030
BECMG 1721/1724 SCT040
ATIS : +33 4 73 62 74 38



MET'MAP, your aeronautical weather chart ! - Copyright ORBIFLY December 2007 - Disclaimer

ORBIFLY MET'MAP TEAM :

Programming & Development : Alexandra Zaïnal
Concept & original design : Baudouin d'Aumeries
Assistance for programming : Marc-Olivier Méhu
Technical & hardware support : Manuel Goepfert

Contact : metmap@orbifly.com




SOURCES & CREDITS :

   NOAA